createdAt,value
2018-10-18T00:00:46.141Z,0
2018-10-18T00:01:46.866Z,0
2018-10-18T00:02:47.593Z,0
2018-10-18T00:03:48.344Z,0
2018-10-18T00:04:49.070Z,0
2018-10-18T00:05:49.794Z,0
2018-10-18T00:06:50.521Z,0
2018-10-18T00:07:51.278Z,0
2018-10-18T00:08:51.999Z,0
2018-10-18T00:09:52.723Z,0
2018-10-18T00:10:53.449Z,0
2018-10-18T00:11:54.209Z,0
2018-10-18T00:12:54.900Z,0
2018-10-18T00:13:55.680Z,0
2018-10-18T00:14:56.376Z,0
2018-10-18T00:15:57.104Z,0
2018-10-18T00:16:57.831Z,0
2018-10-18T00:17:58.618Z,0
2018-10-18T00:18:59.304Z,0
2018-10-18T00:20:00.073Z,0
2018-10-18T00:21:00.754Z,0
2018-10-18T00:22:01.505Z,0
2018-10-18T00:23:02.256Z,0
2018-10-18T00:24:03.039Z,0
2018-10-18T00:25:03.706Z,0
2018-10-18T00:26:04.437Z,0
2018-10-18T00:27:05.187Z,0
2018-10-18T00:28:05.911Z,0
2018-10-18T00:29:06.636Z,0
2018-10-18T00:30:07.437Z,0
2018-10-18T00:31:08.088Z,0
2018-10-18T00:32:08.883Z,0
2018-10-18T00:33:09.539Z,0
2018-10-18T00:34:10.265Z,0
2018-10-18T00:35:10.991Z,0
2018-10-18T00:36:11.798Z,0
2018-10-18T00:37:12.443Z,0
2018-10-18T00:38:13.220Z,0
2018-10-18T00:39:13.916Z,0
2018-10-18T00:40:14.643Z,0
2018-10-18T00:41:15.399Z,0
2018-10-18T00:42:16.259Z,0
2018-10-18T00:43:16.847Z,0
2018-10-18T00:44:17.646Z,0
2018-10-18T00:45:18.301Z,0
2018-10-18T00:46:19.025Z,0
2018-10-18T00:47:19.753Z,0
2018-10-18T00:48:20.479Z,0
2018-10-18T00:49:21.204Z,0
2018-10-18T00:50:21.929Z,0
2018-10-18T00:51:22.656Z,0
2018-10-18T00:52:23.379Z,0
2018-10-18T00:53:24.130Z,0
2018-10-18T00:54:24.882Z,0
2018-10-18T00:55:25.607Z,0
2018-10-18T00:56:26.332Z,0
2018-10-18T00:57:27.058Z,0
2018-10-18T00:58:27.784Z,0
2018-10-18T00:59:28.509Z,0
2018-10-18T01:00:29.235Z,0
2018-10-18T01:01:29.963Z,0
2018-10-18T01:02:30.692Z,0
2018-10-18T01:03:31.419Z,0
2018-10-18T01:04:32.170Z,0
2018-10-18T01:05:32.896Z,0
2018-10-18T01:06:33.623Z,0
2018-10-18T01:07:34.348Z,0
2018-10-18T01:08:35.073Z,0
2018-10-18T01:09:35.800Z,0
2018-10-18T01:10:36.526Z,0
2018-10-18T01:11:37.251Z,0
2018-10-18T01:12:38.001Z,0
2018-10-18T01:13:38.755Z,0
2018-10-18T01:14:39.481Z,0
2018-10-18T01:15:40.207Z,0
2018-10-18T01:16:40.935Z,0
2018-10-18T01:17:41.660Z,0
2018-10-18T01:18:42.386Z,0
2018-10-18T01:19:43.112Z,0
2018-10-18T01:20:43.838Z,0
2018-10-18T01:21:44.568Z,0
2018-10-18T01:22:45.315Z,0
2018-10-18T01:23:46.044Z,0
2018-10-18T01:24:46.769Z,0
2018-10-18T01:25:47.495Z,0
2018-10-18T01:26:48.221Z,0
2018-10-18T01:27:48.946Z,0
2018-10-18T01:28:49.677Z,0
2018-10-18T01:29:50.424Z,0
2018-10-18T01:30:51.150Z,0
2018-10-18T01:31:51.877Z,0
2018-10-18T01:32:52.603Z,0
2018-10-18T01:33:53.329Z,0
2018-10-18T01:34:54.054Z,0
2018-10-18T01:35:54.816Z,0
2018-10-18T01:36:55.507Z,0
2018-10-18T01:37:56.238Z,0
2018-10-18T01:38:56.984Z,0
2018-10-18T01:39:57.711Z,0
2018-10-18T01:40:58.439Z,0
2018-10-18T01:41:59.187Z,0
2018-10-18T01:42:59.889Z,0
2018-10-18T01:44:00.655Z,0
2018-10-18T01:45:01.363Z,0
2018-10-18T01:46:02.092Z,0
2018-10-18T01:47:02.820Z,0
2018-10-18T01:48:03.594Z,0
2018-10-18T01:49:04.271Z,0
2018-10-18T01:50:05.000Z,0
2018-10-18T01:51:05.721Z,0
2018-10-18T01:52:06.447Z,0
2018-10-18T01:53:07.172Z,0
2018-10-18T01:54:07.968Z,0
2018-10-18T01:55:08.626Z,0
2018-10-18T01:56:09.392Z,0
2018-10-18T01:57:10.078Z,0
2018-10-18T01:58:10.803Z,0
2018-10-18T01:59:11.531Z,0
2018-10-18T02:00:12.339Z,0
2018-10-18T02:01:12.986Z,0
2018-10-18T02:02:13.749Z,0
2018-10-18T02:03:14.460Z,0
2018-10-18T02:04:15.186Z,0
2018-10-18T02:05:15.910Z,0
2018-10-18T02:06:16.738Z,0
2018-10-18T02:07:17.364Z,0
2018-10-18T02:08:18.159Z,0
2018-10-18T02:09:18.812Z,0
2018-10-18T02:10:19.537Z,0
2018-10-18T02:11:20.263Z,0
2018-10-18T02:12:20.988Z,0
2018-10-18T02:13:21.715Z,0
2018-10-18T02:14:22.441Z,0
2018-10-18T02:15:23.172Z,0
2018-10-18T02:16:23.891Z,0
2018-10-18T02:17:24.617Z,0
2018-10-18T02:18:25.341Z,0
2018-10-18T02:19:26.067Z,0
2018-10-18T02:20:26.793Z,0
2018-10-18T02:21:27.518Z,0
2018-10-18T02:22:28.243Z,0
2018-10-18T02:23:28.969Z,0
2018-10-18T02:24:29.695Z,0
2018-10-18T02:25:30.420Z,0
2018-10-18T02:26:31.145Z,0
2018-10-18T02:27:31.871Z,0
2018-10-18T02:28:32.597Z,0
2018-10-18T02:29:33.324Z,0
2018-10-18T02:30:34.050Z,0
2018-10-18T02:31:34.775Z,0
2018-10-18T02:32:35.500Z,0
2018-10-18T02:33:36.226Z,0
2018-10-18T02:34:36.951Z,0
2018-10-18T02:35:37.676Z,0
2018-10-18T02:36:38.404Z,0
2018-10-18T02:37:39.154Z,0
2018-10-18T02:38:39.878Z,0
2018-10-18T02:39:40.607Z,0
2018-10-18T02:40:41.333Z,0
2018-10-18T02:41:42.056Z,0
2018-10-18T02:42:42.781Z,0
2018-10-18T02:43:43.517Z,0
2018-10-18T02:44:44.233Z,0
2018-10-18T02:45:44.957Z,0
2018-10-18T02:46:45.683Z,0
2018-10-18T02:47:46.410Z,0
2018-10-18T02:48:47.133Z,0
2018-10-18T02:49:47.885Z,0
2018-10-18T02:50:48.612Z,0
2018-10-18T02:51:49.337Z,0
2018-10-18T02:52:50.061Z,0
2018-10-18T02:53:50.787Z,0
2018-10-18T02:54:51.512Z,0
2018-10-18T02:55:52.239Z,0
2018-10-18T02:56:52.965Z,0
2018-10-18T02:57:53.694Z,0
2018-10-18T02:58:54.415Z,0
2018-10-18T02:59:55.195Z,0
2018-10-18T03:00:55.896Z,0
2018-10-18T03:01:56.621Z,0
2018-10-18T03:02:57.349Z,0
2018-10-18T03:03:58.095Z,0
2018-10-18T03:04:58.822Z,0
2018-10-18T03:05:59.616Z,0
2018-10-18T03:07:00.271Z,0
2018-10-18T03:08:01.000Z,0
2018-10-18T03:09:01.725Z,0
2018-10-18T03:10:02.477Z,0
2018-10-18T03:11:03.200Z,0
2018-10-18T03:12:03.956Z,0
2018-10-18T03:13:04.677Z,0
2018-10-18T03:14:05.420Z,0
2018-10-18T03:15:06.146Z,0
2018-10-18T03:16:06.960Z,0
2018-10-18T03:17:07.595Z,0
2018-10-18T03:18:08.353Z,0
2018-10-18T03:19:09.047Z,0
2018-10-18T03:20:09.771Z,0
2018-10-18T03:21:10.499Z,0
2018-10-18T03:22:11.224Z,0
2018-10-18T03:23:11.950Z,0
2018-10-18T03:24:12.744Z,0
2018-10-18T03:25:13.401Z,0
2018-10-18T03:26:14.159Z,0
2018-10-18T03:27:14.876Z,0
2018-10-18T03:28:15.602Z,0
2018-10-18T03:29:16.333Z,0
2018-10-18T03:30:17.185Z,0
2018-10-18T03:31:17.803Z,0
2018-10-18T03:32:18.530Z,0
2018-10-18T03:33:19.257Z,0
2018-10-18T03:34:19.982Z,0
2018-10-18T03:35:20.706Z,0
2018-10-18T03:36:21.435Z,0
2018-10-18T03:37:22.158Z,0
2018-10-18T03:38:22.885Z,0
2018-10-18T03:39:23.644Z,0
2018-10-18T03:40:24.392Z,0
2018-10-18T03:41:25.250Z,0
2018-10-18T03:42:25.842Z,0
2018-10-18T03:43:26.567Z,0
2018-10-18T03:44:27.294Z,0
2018-10-18T03:45:28.019Z,0
2018-10-18T03:46:28.745Z,0
2018-10-18T03:47:29.471Z,0
2018-10-18T03:48:30.196Z,0
2018-10-18T03:49:30.945Z,0
2018-10-18T03:50:31.672Z,0
2018-10-18T03:51:32.425Z,0
2018-10-18T03:52:33.153Z,0
2018-10-18T03:53:33.909Z,0
2018-10-18T03:54:34.656Z,0
2018-10-18T03:55:35.382Z,0
2018-10-18T03:56:36.108Z,0
2018-10-18T03:57:36.833Z,0
2018-10-18T03:58:37.558Z,0
2018-10-18T03:59:38.392Z,0
2018-10-18T04:00:39.012Z,0
2018-10-18T04:01:39.735Z,0
2018-10-18T04:02:40.460Z,0
2018-10-18T04:03:41.186Z,0
2018-10-18T04:04:41.940Z,0
2018-10-18T04:05:42.690Z,0
2018-10-18T04:06:43.413Z,0
2018-10-18T04:07:44.140Z,0
2018-10-18T04:08:44.863Z,0
2018-10-18T04:09:45.590Z,0
2018-10-18T04:10:46.318Z,0
2018-10-18T04:11:47.046Z,0
2018-10-18T04:12:47.836Z,0
2018-10-18T04:13:48.493Z,0
2018-10-18T04:14:49.219Z,0
2018-10-18T04:15:49.947Z,0
2018-10-18T04:16:50.671Z,0
2018-10-18T04:17:51.461Z,0
2018-10-18T04:18:52.119Z,0
2018-10-18T04:19:52.849Z,0
2018-10-18T04:20:53.598Z,0
2018-10-18T04:21:54.325Z,0
2018-10-18T04:22:55.049Z,0
2018-10-18T04:23:55.830Z,0
2018-10-18T04:24:56.502Z,0
2018-10-18T04:25:57.229Z,0
2018-10-18T04:26:57.977Z,0
2018-10-18T04:27:58.729Z,0
2018-10-18T04:28:59.453Z,0
2018-10-18T04:30:00.208Z,0
2018-10-18T04:31:00.902Z,0
2018-10-18T04:32:01.652Z,0
2018-10-18T04:33:02.378Z,0
2018-10-18T04:34:03.104Z,0
2018-10-18T04:35:03.829Z,0
2018-10-18T04:36:04.575Z,0
2018-10-18T04:37:05.306Z,0
2018-10-18T04:38:06.031Z,0
2018-10-18T04:39:06.756Z,0
2018-10-18T04:40:07.482Z,0
2018-10-18T04:41:08.207Z,0
2018-10-18T04:42:08.967Z,0
2018-10-18T04:43:09.659Z,0
2018-10-18T04:44:10.385Z,0
2018-10-18T04:45:11.111Z,0
2018-10-18T04:46:11.838Z,0
2018-10-18T04:47:12.656Z,0
2018-10-18T04:48:13.425Z,0
2018-10-18T04:49:14.034Z,0
2018-10-18T04:50:14.759Z,0
2018-10-18T04:51:15.485Z,0
2018-10-18T04:52:16.210Z,0
2018-10-18T04:53:16.935Z,0
2018-10-18T04:54:17.659Z,0
2018-10-18T04:55:18.480Z,0
2018-10-18T04:56:19.132Z,0
2018-10-18T04:57:19.856Z,0
2018-10-18T04:58:20.582Z,0
2018-10-18T04:59:21.312Z,0
2018-10-18T05:00:22.059Z,0
2018-10-18T05:01:22.909Z,0
2018-10-18T05:02:23.530Z,0
2018-10-18T05:03:24.239Z,0
2018-10-18T05:04:24.969Z,0
2018-10-18T05:05:25.715Z,0
2018-10-18T05:06:26.445Z,0
2018-10-18T05:07:27.193Z,0
2018-10-18T05:08:27.917Z,0
2018-10-18T05:09:28.646Z,0
2018-10-18T05:10:29.370Z,0
2018-10-18T05:11:30.139Z,0
2018-10-18T05:12:30.877Z,0
2018-10-18T05:13:31.572Z,0
2018-10-18T05:14:32.299Z,0
2018-10-18T05:15:33.027Z,0
2018-10-18T05:16:33.750Z,0
2018-10-18T05:17:34.500Z,0
2018-10-18T05:18:35.225Z,0
2018-10-18T05:19:35.951Z,0
2018-10-18T05:20:36.675Z,0
2018-10-18T05:21:37.426Z,0
2018-10-18T05:22:38.176Z,0
2018-10-18T05:23:38.940Z,0
2018-10-18T05:24:39.633Z,0
2018-10-18T05:25:40.405Z,0
2018-10-18T05:26:41.076Z,0
2018-10-18T05:27:41.803Z,4
2018-10-18T05:28:42.551Z,0
2018-10-18T05:29:43.277Z,4
2018-10-18T05:30:44.028Z,4
2018-10-18T05:31:44.806Z,4
2018-10-18T05:32:45.479Z,4
2018-10-18T05:33:46.208Z,4
2018-10-18T05:34:46.957Z,8
2018-10-18T05:35:47.682Z,8
2018-10-18T05:36:48.408Z,8
2018-10-18T05:37:49.198Z,12
2018-10-18T05:38:49.893Z,16
2018-10-18T05:39:50.605Z,12
2018-10-18T05:40:51.333Z,16
2018-10-18T05:41:52.061Z,20
2018-10-18T05:42:52.815Z,24
2018-10-18T05:43:53.514Z,28
2018-10-18T05:44:54.240Z,32
2018-10-18T05:45:54.970Z,40
2018-10-18T05:46:55.709Z,48
2018-10-18T05:47:56.421Z,52
2018-10-18T05:48:57.202Z,56
2018-10-18T05:49:57.875Z,60
2018-10-18T05:50:58.628Z,64
2018-10-18T05:51:59.353Z,76
2018-10-18T05:53:00.126Z,88
2018-10-18T05:54:00.937Z,100
2018-10-18T05:55:01.602Z,116
2018-10-18T05:56:02.260Z,128
2018-10-18T05:57:02.987Z,144
2018-10-18T05:58:03.715Z,164
2018-10-18T05:59:04.443Z,184
2018-10-18T06:00:05.193Z,200
2018-10-18T06:01:05.952Z,224
2018-10-18T06:02:06.622Z,240
2018-10-18T06:03:07.352Z,264
2018-10-18T06:04:08.107Z,284
2018-10-18T06:05:08.836Z,304
2018-10-18T06:06:09.565Z,328
2018-10-18T06:07:10.377Z,356
2018-10-18T06:08:11.024Z,384
2018-10-18T06:09:11.752Z,408
2018-10-18T06:10:12.576Z,428
2018-10-18T06:11:13.215Z,452
2018-10-18T06:12:13.938Z,484
2018-10-18T06:13:14.750Z,516
2018-10-18T06:14:15.396Z,532
2018-10-18T06:15:16.149Z,560
2018-10-18T06:16:16.880Z,600
2018-10-18T06:17:17.604Z,640
2018-10-18T06:18:18.333Z,664
2018-10-18T06:19:19.094Z,688
2018-10-18T06:20:19.791Z,736
2018-10-18T06:21:20.520Z,804
2018-10-18T06:22:21.251Z,888
2018-10-18T06:23:22.047Z,940
2018-10-18T06:24:22.707Z,920
2018-10-18T06:25:23.438Z,836
2018-10-18T06:26:24.188Z,824
2018-10-18T06:27:24.923Z,852
2018-10-18T06:28:25.647Z,836
2018-10-18T06:29:26.401Z,792
2018-10-18T06:30:27.128Z,768
2018-10-18T06:31:27.859Z,788
2018-10-18T06:32:28.585Z,868
2018-10-18T06:33:29.314Z,944
2018-10-18T06:34:30.043Z,948
2018-10-18T06:35:30.771Z,956
2018-10-18T06:36:31.498Z,976
2018-10-18T06:37:32.287Z,1012
2018-10-18T06:38:32.960Z,1048
2018-10-18T06:39:33.692Z,1084
2018-10-18T06:40:34.450Z,1168
2018-10-18T06:41:35.179Z,1264
2018-10-18T06:42:35.911Z,1324
2018-10-18T06:43:36.641Z,1336
2018-10-18T06:44:37.374Z,1308
2018-10-18T06:45:38.129Z,1268
2018-10-18T06:46:38.858Z,1252
2018-10-18T06:47:39.826Z,1376
2018-10-18T06:48:40.317Z,1516
2018-10-18T06:49:41.048Z,1500
2018-10-18T06:50:41.803Z,1436
2018-10-18T06:51:42.535Z,1432
2018-10-18T06:52:43.267Z,1424
2018-10-18T06:53:43.998Z,1484
2018-10-18T06:54:44.737Z,1680
2018-10-18T06:55:45.469Z,1644
2018-10-18T06:56:46.187Z,1444
2018-10-18T06:57:46.916Z,1308
2018-10-18T06:58:47.644Z,1220
2018-10-18T06:59:48.467Z,1164
2018-10-18T07:00:49.102Z,1156
2018-10-18T07:01:49.833Z,1204
2018-10-18T07:02:50.563Z,1228
2018-10-18T07:03:51.318Z,1292
2018-10-18T07:04:52.049Z,1436
2018-10-18T07:05:52.780Z,1376
2018-10-18T07:06:53.507Z,1288
2018-10-18T07:07:54.236Z,1300
2018-10-18T07:08:54.989Z,1460
2018-10-18T07:09:55.697Z,1660
2018-10-18T07:10:56.521Z,1780
2018-10-18T07:11:57.173Z,1888
2018-10-18T07:12:57.884Z,1992
2018-10-18T07:13:58.616Z,2196
2018-10-18T07:14:59.347Z,2412
2018-10-18T07:16:00.078Z,2680
2018-10-18T07:17:00.808Z,3036
2018-10-18T07:18:01.546Z,3260
2018-10-18T07:19:02.275Z,3456
2018-10-18T07:20:03.026Z,3572
2018-10-18T07:21:03.757Z,3592
2018-10-18T07:22:04.495Z,3700
2018-10-18T07:23:05.246Z,3916
2018-10-18T07:24:06.022Z,3992
2018-10-18T07:25:06.775Z,4076
2018-10-18T07:26:07.437Z,4160
2018-10-18T07:27:08.168Z,4372
2018-10-18T07:28:08.900Z,4496
2018-10-18T07:29:09.631Z,4708
2018-10-18T07:30:10.439Z,4612
2018-10-18T07:31:11.114Z,4792
2018-10-18T07:32:11.868Z,4880
2018-10-18T07:33:12.598Z,4656
2018-10-18T07:34:13.330Z,4724
2018-10-18T07:35:14.110Z,4952
2018-10-18T07:36:14.891Z,5052
2018-10-18T07:37:15.552Z,5128
2018-10-18T07:38:16.308Z,5180
2018-10-18T07:39:17.037Z,5128
2018-10-18T07:40:17.770Z,5288
2018-10-18T07:41:18.659Z,5464
2018-10-18T07:42:19.343Z,5472
2018-10-18T07:43:19.987Z,5868
2018-10-18T07:44:20.726Z,6136
2018-10-18T07:45:21.482Z,6016
2018-10-18T07:46:22.213Z,5788
2018-10-18T07:47:22.945Z,5376
2018-10-18T07:48:23.687Z,5260
2018-10-18T07:49:24.413Z,6072
2018-10-18T07:50:25.146Z,6216
2018-10-18T07:51:25.878Z,6452
2018-10-18T07:52:26.614Z,6484
2018-10-18T07:53:27.358Z,6612
2018-10-18T07:54:28.096Z,6720
2018-10-18T07:55:28.834Z,6552
2018-10-18T07:56:29.565Z,7876
2018-10-18T07:57:30.297Z,9656
2018-10-18T07:58:31.033Z,10452
2018-10-18T07:59:31.767Z,6024
2018-10-18T08:00:32.552Z,6928
2018-10-18T08:01:33.234Z,5452
2018-10-18T08:02:33.968Z,4104
2018-10-18T08:03:34.704Z,3452
2018-10-18T08:04:35.437Z,3324
2018-10-18T08:05:36.170Z,6444
2018-10-18T08:06:36.930Z,8984
2018-10-18T08:07:37.665Z,9576
2018-10-18T08:08:38.397Z,8540
2018-10-18T08:09:39.132Z,7252
2018-10-18T08:10:39.881Z,8048
2018-10-18T08:11:40.611Z,9460
2018-10-18T08:12:41.347Z,8696
2018-10-18T08:13:42.080Z,9928
2018-10-18T08:14:42.817Z,10700
2018-10-18T08:15:43.574Z,12940
2018-10-18T08:16:44.336Z,12920
2018-10-18T08:17:45.042Z,17728
2018-10-18T08:18:45.777Z,18656
2018-10-18T08:19:46.511Z,16096
2018-10-18T08:20:47.248Z,16960
2018-10-18T08:21:48.009Z,15712
2018-10-18T08:22:48.750Z,15712
2018-10-18T08:23:49.484Z,17952
2018-10-18T08:24:50.218Z,7068
2018-10-18T08:25:50.957Z,13864
2018-10-18T08:26:51.690Z,6656
2018-10-18T08:27:52.428Z,10744
2018-10-18T08:28:53.162Z,13140
2018-10-18T08:29:53.896Z,17024
2018-10-18T08:30:54.687Z,11804
2018-10-18T08:31:55.367Z,18080
2018-10-18T08:32:56.104Z,19136
2018-10-18T08:33:56.841Z,18816
2018-10-18T08:34:57.577Z,20928
2018-10-18T08:35:58.314Z,16672
2018-10-18T08:36:59.058Z,19584
2018-10-18T08:37:59.907Z,22080
2018-10-18T08:39:00.581Z,21536
2018-10-18T08:40:01.273Z,24320
2018-10-18T08:41:02.033Z,15744
2018-10-18T08:42:02.797Z,10896
2018-10-18T08:43:03.586Z,24896
2018-10-18T08:44:04.381Z,24128
2018-10-18T08:45:05.028Z,21120
2018-10-18T08:46:05.769Z,20000
2018-10-18T08:47:06.513Z,18912
2018-10-18T08:48:07.258Z,25888
2018-10-18T08:49:08.097Z,25024
2018-10-18T08:50:08.742Z,24128
2018-10-18T08:51:09.486Z,23456
2018-10-18T08:52:10.229Z,24192
2018-10-18T08:53:10.972Z,21088
2018-10-18T08:54:11.716Z,15360
2018-10-18T08:55:12.595Z,20928
2018-10-18T08:56:13.201Z,16960
2018-10-18T08:57:13.945Z,17024
2018-10-18T08:58:14.690Z,15520
2018-10-18T08:59:15.467Z,13916
2018-10-18T09:00:16.194Z,15520
2018-10-18T09:01:17.091Z,16672
2018-10-18T09:02:17.677Z,22048
2018-10-18T09:03:18.443Z,27008
2018-10-18T09:04:19.183Z,31104
2018-10-18T09:05:19.952Z,24576
2018-10-18T09:06:20.693Z,9604
2018-10-18T09:07:21.436Z,7932
2018-10-18T09:08:22.172Z,29760
2018-10-18T09:09:22.914Z,9056
2018-10-18T09:10:23.668Z,10044
2018-10-18T09:11:24.400Z,23616
2018-10-18T09:12:25.160Z,14500
2018-10-18T09:13:25.901Z,32960
2018-10-18T09:14:26.643Z,22144
2018-10-18T09:15:27.384Z,19936
2018-10-18T09:16:28.127Z,33440
2018-10-18T09:17:28.895Z,32960
2018-10-18T09:18:29.635Z,32352
2018-10-18T09:19:30.377Z,31936
2018-10-18T09:20:31.123Z,31808
2018-10-18T09:21:31.865Z,17376
2018-10-18T09:22:32.609Z,36800
2018-10-18T09:23:33.386Z,36416
2018-10-18T09:24:34.095Z,22336
2018-10-18T09:25:34.864Z,30368
2018-10-18T09:26:35.605Z,23168
2018-10-18T09:27:36.352Z,39904
2018-10-18T09:28:37.095Z,19648
2018-10-18T09:29:37.837Z,16416
2018-10-18T09:30:38.584Z,15584
2018-10-18T09:31:39.325Z,13432
2018-10-18T09:32:40.063Z,11752
2018-10-18T09:33:40.803Z,37984
2018-10-18T09:34:41.544Z,12316
2018-10-18T09:35:42.310Z,10664
2018-10-18T09:36:43.052Z,11192
2018-10-18T09:37:43.794Z,9284
2018-10-18T09:38:44.555Z,9560
2018-10-18T09:39:45.295Z,10864
2018-10-18T09:40:46.033Z,9236
2018-10-18T09:41:46.773Z,7332
2018-10-18T09:42:47.512Z,9668
2018-10-18T09:43:48.250Z,8892
2018-10-18T09:44:49.173Z,8784
2018-10-18T09:45:49.721Z,8204
2018-10-18T09:46:50.461Z,8176
2018-10-18T09:47:51.201Z,9076
2018-10-18T09:48:51.954Z,11552
2018-10-18T09:49:52.681Z,11904
2018-10-18T09:50:53.423Z,9704
2018-10-18T09:51:54.162Z,7232
2018-10-18T09:52:54.955Z,7300
2018-10-18T09:53:55.640Z,7344
2018-10-18T09:54:56.418Z,7904
2018-10-18T09:55:57.142Z,8848
2018-10-18T09:56:57.856Z,8684
2018-10-18T09:57:58.590Z,7840
2018-10-18T09:58:59.327Z,7360
2018-10-18T10:00:00.067Z,8924
2018-10-18T10:01:00.847Z,6320
2018-10-18T10:02:01.567Z,5764
2018-10-18T10:03:02.303Z,6176
2018-10-18T10:04:03.063Z,5768
2018-10-18T10:05:03.778Z,4360
2018-10-18T10:06:04.518Z,4120
2018-10-18T10:07:05.281Z,3932
2018-10-18T10:08:05.985Z,3276
2018-10-18T10:09:06.719Z,3380
2018-10-18T10:10:07.452Z,3332
2018-10-18T10:11:08.186Z,3480
2018-10-18T10:12:08.920Z,3596
2018-10-18T10:13:09.760Z,3316
2018-10-18T10:14:10.387Z,3968
2018-10-18T10:15:11.120Z,4416
2018-10-18T10:16:11.856Z,3812
2018-10-18T10:17:12.631Z,3804
2018-10-18T10:18:13.383Z,3932
2018-10-18T10:19:14.075Z,3596
2018-10-18T10:20:14.797Z,3176
2018-10-18T10:21:15.532Z,3728
2018-10-18T10:22:16.267Z,4796
2018-10-18T10:23:17.001Z,4244
2018-10-18T10:24:17.736Z,3420
2018-10-18T10:25:18.533Z,3476
2018-10-18T10:26:19.211Z,3624
2018-10-18T10:27:19.946Z,3640
2018-10-18T10:28:20.674Z,4512
2018-10-18T10:29:21.408Z,7444
2018-10-18T10:30:22.231Z,8944
2018-10-18T10:31:22.879Z,7208
2018-10-18T10:32:23.616Z,7788
2018-10-18T10:33:24.409Z,5832
2018-10-18T10:34:25.085Z,5208
2018-10-18T10:35:25.844Z,5288
2018-10-18T10:36:26.579Z,6308
2018-10-18T10:37:27.311Z,5460
2018-10-18T10:38:28.048Z,3652
2018-10-18T10:39:28.782Z,3892
2018-10-18T10:40:29.513Z,4344
2018-10-18T10:41:30.245Z,4456
2018-10-18T10:42:30.977Z,5360
2018-10-18T10:43:31.711Z,6780
2018-10-18T10:44:32.452Z,8612
2018-10-18T10:45:33.191Z,8824
2018-10-18T10:46:33.910Z,10740
2018-10-18T10:47:34.645Z,12260
2018-10-18T10:48:35.381Z,13488
2018-10-18T10:49:36.115Z,12876
2018-10-18T10:50:36.849Z,7792
2018-10-18T10:51:37.584Z,6992
2018-10-18T10:52:38.317Z,6332
2018-10-18T10:53:39.049Z,5876
2018-10-18T10:54:39.783Z,5840
2018-10-18T10:55:40.515Z,5308
2018-10-18T10:56:41.281Z,4652
2018-10-18T10:57:42.004Z,3600
2018-10-18T10:58:42.742Z,3372
2018-10-18T10:59:43.468Z,3152
2018-10-18T11:00:44.197Z,4248
2018-10-18T11:01:44.927Z,5232
2018-10-18T11:02:45.662Z,6584
2018-10-18T11:03:46.393Z,7152
2018-10-18T11:04:47.122Z,8896
2018-10-18T11:05:47.856Z,12436
2018-10-18T11:06:48.588Z,10912
2018-10-18T11:07:49.323Z,11692
2018-10-18T11:08:50.057Z,13248
2018-10-18T11:09:50.840Z,12640
2018-10-18T11:10:51.546Z,12564
2018-10-18T11:11:52.300Z,17792
2018-10-18T11:12:53.021Z,14064
2018-10-18T11:13:53.778Z,8924
2018-10-18T11:14:54.530Z,7468
2018-10-18T11:15:55.240Z,7020
2018-10-18T11:16:55.993Z,7144
2018-10-18T11:17:56.749Z,9324
2018-10-18T11:18:57.462Z,8608
2018-10-18T11:19:58.204Z,9112
2018-10-18T11:20:59.002Z,7988
2018-10-18T11:21:59.681Z,8128
2018-10-18T11:23:00.415Z,6232
2018-10-18T11:24:01.152Z,6908
2018-10-18T11:25:01.881Z,7672
2018-10-18T11:26:02.674Z,6380
2018-10-18T11:27:03.426Z,5020
2018-10-18T11:28:04.074Z,6032
2018-10-18T11:29:04.806Z,4532
2018-10-18T11:30:05.595Z,4596
2018-10-18T11:31:06.275Z,4840
2018-10-18T11:32:07.118Z,6444
2018-10-18T11:33:07.825Z,6696
2018-10-18T11:34:08.495Z,5916
2018-10-18T11:35:09.226Z,5868
2018-10-18T11:36:09.989Z,4740
2018-10-18T11:37:10.710Z,4724
2018-10-18T11:38:11.551Z,4884
2018-10-18T11:39:12.174Z,4976
2018-10-18T11:40:12.907Z,4376
2018-10-18T11:41:13.640Z,4352
2018-10-18T11:42:14.418Z,3196
2018-10-18T11:43:15.159Z,3980
2018-10-18T11:44:15.928Z,3284
2018-10-18T11:45:16.582Z,3848
2018-10-18T11:46:17.315Z,3792
2018-10-18T11:47:18.047Z,2824
2018-10-18T11:48:18.802Z,2744
2018-10-18T11:49:19.533Z,3688
2018-10-18T11:50:20.262Z,3156
2018-10-18T11:51:21.006Z,2968
2018-10-18T11:52:21.743Z,3296
2018-10-18T11:53:22.499Z,4952
2018-10-18T11:54:23.230Z,6216
2018-10-18T11:55:23.963Z,7952
2018-10-18T11:56:24.692Z,8264
2018-10-18T11:57:25.422Z,7872
2018-10-18T11:58:26.155Z,8136
2018-10-18T11:59:26.888Z,9548
2018-10-18T12:00:27.623Z,10028
2018-10-18T12:01:28.444Z,8888
2018-10-18T12:02:29.115Z,10752
2018-10-18T12:03:29.820Z,9812
2018-10-18T12:04:30.551Z,8764
2018-10-18T12:05:31.284Z,6804
2018-10-18T12:06:32.014Z,7124
2018-10-18T12:07:32.770Z,7060
2018-10-18T12:08:33.504Z,6280
2018-10-18T12:09:34.237Z,6996
2018-10-18T12:10:34.970Z,5720
2018-10-18T12:11:35.727Z,4844
2018-10-18T12:12:36.461Z,4516
2018-10-18T12:13:37.218Z,3876
2018-10-18T12:14:37.949Z,3796
2018-10-18T12:15:38.680Z,3224
2018-10-18T12:16:39.411Z,2364
2018-10-18T12:17:40.139Z,1980
2018-10-18T12:18:40.874Z,1648
2018-10-18T12:19:41.627Z,1100
2018-10-18T12:20:42.361Z,1148
2018-10-18T12:21:43.089Z,1412
2018-10-18T12:22:43.818Z,1932
2018-10-18T12:23:44.548Z,2000
2018-10-18T12:24:45.277Z,2388
2018-10-18T12:25:46.007Z,1740
2018-10-18T12:26:46.828Z,2548
2018-10-18T12:27:47.491Z,2456
2018-10-18T12:28:48.216Z,2612
2018-10-18T12:29:48.947Z,2740
2018-10-18T12:30:49.676Z,2616
2018-10-18T12:31:50.432Z,2432
2018-10-18T12:32:51.162Z,3184
2018-10-18T12:33:51.891Z,3392
2018-10-18T12:34:52.624Z,3172
2018-10-18T12:35:53.350Z,2900
2018-10-18T12:36:54.079Z,2692
2018-10-18T12:37:54.873Z,2824
2018-10-18T12:38:55.540Z,3152
2018-10-18T12:39:56.269Z,2116
2018-10-18T12:40:57.076Z,2068
2018-10-18T12:41:57.771Z,2760
2018-10-18T12:42:58.460Z,2252
2018-10-18T12:43:59.234Z,2476
2018-10-18T12:44:59.917Z,2248
2018-10-18T12:46:00.648Z,2444
2018-10-18T12:47:01.473Z,2696
2018-10-18T12:48:02.265Z,3556
2018-10-18T12:49:02.936Z,3936
2018-10-18T12:50:03.690Z,3280
2018-10-18T12:51:04.398Z,3680
2018-10-18T12:52:05.148Z,3188
2018-10-18T12:53:05.876Z,3312
2018-10-18T12:54:06.694Z,3336
2018-10-18T12:55:07.337Z,3396
2018-10-18T12:56:08.173Z,3376
2018-10-18T12:57:08.793Z,2864
2018-10-18T12:58:09.522Z,2176
2018-10-18T12:59:10.250Z,1776
2018-10-18T13:00:11.056Z,2040
2018-10-18T13:01:11.709Z,2048
2018-10-18T13:02:12.561Z,1620
2018-10-18T13:03:13.218Z,1920
2018-10-18T13:04:13.947Z,2152
2018-10-18T13:05:14.676Z,2468
2018-10-18T13:06:15.484Z,2452
2018-10-18T13:07:16.135Z,2564
2018-10-18T13:08:16.923Z,3052
2018-10-18T13:09:17.616Z,2996
2018-10-18T13:10:18.325Z,3780
2018-10-18T13:11:19.052Z,3308
2018-10-18T13:12:19.886Z,3128
2018-10-18T13:13:20.508Z,3220
2018-10-18T13:14:21.263Z,3176
2018-10-18T13:15:22.020Z,2920
2018-10-18T13:16:22.749Z,2916
2018-10-18T13:17:23.479Z,2324
2018-10-18T13:18:24.207Z,2308
2018-10-18T13:19:24.936Z,2548
2018-10-18T13:20:25.689Z,2320
2018-10-18T13:21:26.417Z,2384
2018-10-18T13:22:27.148Z,1932
2018-10-18T13:23:27.879Z,2020
2018-10-18T13:24:28.606Z,3016
2018-10-18T13:25:29.399Z,3776
2018-10-18T13:26:30.065Z,3276
2018-10-18T13:27:30.819Z,3492
2018-10-18T13:28:31.547Z,2952
2018-10-18T13:29:32.279Z,2476
2018-10-18T13:30:33.033Z,1864
2018-10-18T13:31:33.762Z,1560
2018-10-18T13:32:34.489Z,1448
2018-10-18T13:33:35.242Z,1384
2018-10-18T13:34:35.971Z,1336
2018-10-18T13:35:36.701Z,1328
2018-10-18T13:36:37.453Z,1660
2018-10-18T13:37:38.184Z,1896
2018-10-18T13:38:38.911Z,2016
2018-10-18T13:39:39.637Z,2336
2018-10-18T13:40:40.393Z,2072
2018-10-18T13:41:41.119Z,2132
2018-10-18T13:42:41.873Z,1812
2018-10-18T13:43:42.601Z,1248
2018-10-18T13:44:43.332Z,1788
2018-10-18T13:45:44.061Z,2032
2018-10-18T13:46:44.788Z,2000
2018-10-18T13:47:45.515Z,2268
2018-10-18T13:48:46.243Z,2388
2018-10-18T13:49:46.973Z,2068
2018-10-18T13:50:47.703Z,2000
2018-10-18T13:51:48.428Z,2164
2018-10-18T13:52:49.157Z,2256
2018-10-18T13:53:49.885Z,2332
2018-10-18T13:54:50.615Z,2460
2018-10-18T13:55:51.345Z,2624
2018-10-18T13:56:52.075Z,2844
2018-10-18T13:57:52.805Z,3160
2018-10-18T13:58:53.552Z,3556
2018-10-18T13:59:54.294Z,3972
2018-10-18T14:00:55.013Z,4288
2018-10-18T14:01:55.795Z,4056